Time;durP1;ratioP1;P1;durP2;ratioP2;P2;SDS_P1;SDS_P2;PMS_P1;PMS_P2;Temp;Humidity;BMP_temperature;BMP_pressure;BME280_temperature;BME280_humidity;BME280_pressure;Samples;Min_cycle;Max_cycle;Signal;HPM_P1;HPM_P2
2022/02/27 00:00:10;;;;;;;20.02;7.07;;;2.10;99.90;;;;;;5038218;28;20045;-59
2022/02/27 00:02:41;;;;;;;15.18;5.93;;;2.00;99.90;;;;;;5036646;28;20516;-59
2022/02/27 00:05:08;;;;;;;18.15;6.38;;;2.00;99.90;;;;;;5039501;28;20087;-59
2022/02/27 00:07:34;;;;;;;15.63;8.05;;;1.90;99.90;;;;;;5040187;28;20064;-59
2022/02/27 00:10:01;;;;;;;15.68;6.45;;;1.90;99.90;;;;;;5040276;28;20520;-59
2022/02/27 00:12:27;;;;;;;13.20;6.22;;;1.90;99.90;;;;;;5038630;28;20080;-59
2022/02/27 00:14:54;;;;;;;17.40;6.10;;;1.80;99.90;;;;;;5022154;28;20417;-59
2022/02/27 00:17:20;;;;;;;24.02;7.50;;;1.70;99.90;;;;;;5023969;28;20102;-60
2022/02/27 00:19:47;;;;;;;15.77;7.40;;;1.60;99.90;;;;;;5041149;28;20098;-60
2022/02/27 00:22:13;;;;;;;22.13;7.75;;;1.60;99.90;;;;;;5040140;28;20075;-59
2022/02/27 00:24:39;;;;;;;15.90;6.68;;;1.60;99.90;;;;;;5040941;28;20053;-59
2022/02/27 00:27:05;;;;;;;18.48;7.93;;;1.60;99.90;;;;;;5039976;28;20075;-59
2022/02/27 00:29:32;;;;;;;19.48;7.43;;;1.60;99.90;;;;;;5041281;28;20063;-59
2022/02/27 00:32:01;;;;;;;16.75;6.65;;;1.60;99.90;;;;;;5006391;28;20053;-60
2022/02/27 00:34:27;;;;;;;22.98;8.35;;;1.50;99.90;;;;;;5023845;28;20049;-59
2022/02/27 00:36:53;;;;;;;16.83;7.15;;;1.50;99.90;;;;;;5040466;28;20052;-59
2022/02/27 00:39:20;;;;;;;18.33;6.55;;;1.50;99.90;;;;;;5039871;28;21021;-59
2022/02/27 00:41:46;;;;;;;15.73;6.93;;;1.50;99.90;;;;;;5007144;28;20116;-59
2022/02/27 00:44:13;;;;;;;14.27;6.53;;;1.50;99.90;;;;;;5040437;28;20064;-59
2022/02/27 00:46:39;;;;;;;19.17;7.65;;;1.50;99.90;;;;;;5023602;28;20040;-59
2022/02/27 00:49:05;;;;;;;19.67;7.32;;;1.40;99.90;;;;;;5040965;28;20048;-59
2022/02/27 00:51:32;;;;;;;16.15;6.60;;;1.40;99.90;;;;;;5039915;28;20056;-59
2022/02/27 00:54:01;;;;;;;16.25;7.38;;;1.30;99.90;;;;;;5039893;28;20045;-59
2022/02/27 00:56:27;;;;;;;22.50;7.65;;;1.30;99.90;;;;;;5042446;28;20044;-60
2022/02/27 00:58:53;;;;;;;20.27;7.15;;;1.30;99.90;;;;;;5036779;28;20084;-59
2022/02/27 01:01:20;;;;;;;13.18;6.60;;;1.30;99.90;;;;;;5040843;28;20106;-59
2022/02/27 01:03:46;;;;;;;18.88;6.47;;;1.20;99.90;;;;;;5024112;28;20064;-59
2022/02/27 01:06:13;;;;;;;19.52;8.20;;;1.20;99.90;;;;;;5038989;28;20132;-60
2022/02/27 01:08:42;;;;;;;16.15;6.60;;;1.20;99.90;;;;;;5053897;28;20082;-59
2022/02/27 01:11:09;;;;;;;21.05;7.32;;;1.20;99.90;;;;;;5039109;28;20115;-59
2022/02/27 01:13:37;;;;;;;17.27;7.10;;;1.20;99.90;;;;;;5038948;28;20052;-59
2022/02/27 01:16:07;;;;;;;17.70;7.00;;;1.20;99.90;;;;;;5039843;28;20124;-59
2022/02/27 01:18:33;;;;;;;18.38;6.50;;;1.20;99.90;;;;;;5040507;28;20052;-60
2022/02/27 01:21:01;;;;;;;21.77;7.22;;;1.30;99.90;;;;;;5041395;28;20143;-60
2022/02/27 01:23:28;;;;;;;16.23;7.65;;;1.30;99.90;;;;;;5041236;28;21217;-60
2022/02/27 01:25:54;;;;;;;20.48;8.05;;;1.30;99.90;;;;;;5042512;28;20578;-60
2022/02/27 01:28:20;;;;;;;18.92;7.10;;;1.30;99.90;;;;;;5022342;28;20164;-59
2022/02/27 01:30:46;;;;;;;25.80;8.15;;;1.30;99.90;;;;;;5041624;28;20037;-59
2022/02/27 01:33:13;;;;;;;17.05;7.65;;;1.40;99.90;;;;;;5024891;28;20049;-59
2022/02/27 01:35:39;;;;;;;18.33;7.63;;;1.40;99.90;;;;;;5015418;28;20547;-60
2022/02/27 01:38:05;;;;;;;21.52;7.28;;;1.40;99.90;;;;;;5019099;28;20060;-60
2022/02/27 01:40:31;;;;;;;12.35;6.60;;;1.40;99.90;;;;;;5039869;28;20501;-59
2022/02/27 01:42:59;;;;;;;18.50;7.95;;;1.40;99.90;;;;;;5038804;28;20044;-60
2022/02/27 01:45:25;;;;;;;17.40;7.05;;;1.40;99.90;;;;;;5041324;28;20053;-60
2022/02/27 01:47:51;;;;;;;18.65;7.75;;;1.40;99.90;;;;;;5006893;28;20076;-59
2022/02/27 01:50:17;;;;;;;19.42;8.15;;;1.40;99.90;;;;;;5040158;28;20041;-59
2022/02/27 01:52:44;;;;;;;25.17;8.73;;;1.30;99.90;;;;;;5039955;28;20393;-59
2022/02/27 01:55:11;;;;;;;16.65;7.95;;;1.30;99.90;;;;;;5022830;28;20171;-59
2022/02/27 01:57:40;;;;;;;21.65;8.30;;;1.30;99.90;;;;;;4997169;28;20081;-59
2022/02/27 02:00:08;;;;;;;21.45;8.23;;;1.30;99.90;;;;;;5039104;28;20331;-59
2022/02/27 02:02:39;;;;;;;20.30;8.18;;;1.30;99.90;;;;;;5023283;28;20045;-59
2022/02/27 02:05:06;;;;;;;19.58;8.23;;;1.30;99.90;;;;;;5039004;28;20122;-60
2022/02/27 02:07:34;;;;;;;18.92;6.90;;;1.30;99.90;;;;;;5041088;28;20061;-60
2022/02/27 02:10:00;;;;;;;21.27;7.95;;;1.30;99.90;;;;;;5054313;28;20087;-60
2022/02/27 02:12:29;;;;;;;19.75;8.35;;;1.30;99.90;;;;;;5024097;28;20371;-60
2022/02/27 02:14:55;;;;;;;16.73;6.55;;;1.30;99.90;;;;;;5020189;28;20091;-59
2022/02/27 02:17:21;;;;;;;13.65;7.78;;;1.30;99.90;;;;;;5025002;28;20091;-59
2022/02/27 02:19:53;;;;;;;21.98;6.97;;;1.20;99.90;;;;;;5039710;28;20048;-59
2022/02/27 02:22:19;;;;;;;14.70;6.57;;;1.20;99.90;;;;;;5039541;28;20524;-60
2022/02/27 02:24:46;;;;;;;17.55;8.73;;;1.30;99.90;;;;;;5021989;28;20048;-59
2022/02/27 02:27:12;;;;;;;16.23;6.63;;;1.20;99.90;;;;;;5041362;28;20068;-59
2022/02/27 02:29:39;;;;;;;22.42;8.40;;;1.20;99.90;;;;;;5039536;28;20049;-59
2022/02/27 02:32:08;;;;;;;18.50;7.82;;;1.20;99.90;;;;;;5040296;28;20049;-59
2022/02/27 02:34:35;;;;;;;16.52;7.32;;;1.20;99.90;;;;;;5039157;28;20541;-60
2022/02/27 02:37:01;;;;;;;18.25;6.72;;;1.20;99.90;;;;;;5039412;28;20578;-60
2022/02/27 02:39:29;;;;;;;19.65;5.97;;;1.20;99.90;;;;;;5039318;28;20393;-60
2022/02/27 02:41:57;;;;;;;14.70;6.53;;;1.10;99.90;;;;;;5036039;28;20045;-60
2022/02/27 02:44:27;;;;;;;16.35;6.45;;;1.10;99.90;;;;;;5024602;28;20083;-60
2022/02/27 02:46:53;;;;;;;16.35;6.13;;;1.10;99.90;;;;;;5038390;28;20064;-60
2022/02/27 02:49:20;;;;;;;14.63;7.00;;;1.10;99.90;;;;;;5041591;28;20080;-60
2022/02/27 02:51:53;;;;;;;16.42;6.78;;;1.10;99.90;;;;;;5022305;28;20515;-60
2022/02/27 02:54:19;;;;;;;14.40;7.15;;;1.10;99.90;;;;;;5039695;28;20049;-59
2022/02/27 02:56:45;;;;;;;18.92;7.25;;;1.10;99.90;;;;;;5038882;28;20041;-60
2022/02/27 02:59:12;;;;;;;20.27;7.88;;;1.10;99.90;;;;;;5041616;28;20547;-60
2022/02/27 03:01:38;;;;;;;15.63;7.00;;;1.10;99.90;;;;;;5042971;28;20044;-60
2022/02/27 03:04:05;;;;;;;19.08;7.40;;;1.10;99.90;;;;;;5059749;28;20049;-60
2022/02/27 03:06:32;;;;;;;13.68;7.15;;;1.10;99.90;;;;;;5059811;28;20375;-60
2022/02/27 03:08:58;;;;;;;20.30;8.35;;;1.10;99.90;;;;;;5045113;28;20053;-60
2022/02/27 03:11:24;;;;;;;15.85;6.47;;;1.10;99.90;;;;;;5042101;28;20045;-60
2022/02/27 03:13:51;;;;;;;19.33;7.70;;;1.10;99.90;;;;;;5043930;28;20045;-60
2022/02/27 03:16:18;;;;;;;16.50;6.45;;;1.10;99.90;;;;;;5042810;28;20136;-60
2022/02/27 03:18:44;;;;;;;16.33;6.30;;;1.10;99.90;;;;;;5042896;28;20044;-60
2022/02/27 03:21:11;;;;;;;15.50;7.38;;;1.00;99.90;;;;;;5042758;28;20055;-60
2022/02/27 03:23:37;;;;;;;21.27;7.82;;;1.00;99.90;;;;;;5044801;28;20037;-60
2022/02/27 03:26:04;;;;;;;12.43;6.35;;;1.00;99.90;;;;;;5043882;28;20107;-60
2022/02/27 03:28:31;;;;;;;23.70;8.02;;;1.00;99.90;;;;;;5044083;28;20412;-60
2022/02/27 03:30:57;;;;;;;18.75;7.55;;;1.00;99.90;;;;;;5043001;28;20045;-60
2022/02/27 03:33:23;;;;;;;16.33;6.75;;;0.90;99.90;;;;;;5059104;28;20049;-60
2022/02/27 03:35:49;;;;;;;14.15;7.38;;;0.90;99.90;;;;;;5043089;28;20044;-60
2022/02/27 03:38:15;;;;;;;21.27;9.25;;;0.90;99.90;;;;;;5042815;28;20041;-60
2022/02/27 03:40:42;;;;;;;18.70;7.43;;;0.90;99.90;;;;;;5044034;28;20064;-60
2022/02/27 03:43:08;;;;;;;14.75;7.70;;;0.90;99.90;;;;;;5044845;28;20051;-60
2022/02/27 03:45:34;;;;;;;17.15;7.10;;;0.90;99.90;;;;;;5025994;28;20136;-60
2022/02/27 03:48:00;;;;;;;20.77;8.05;;;0.90;99.90;;;;;;5042292;28;20052;-60
2022/02/27 03:50:27;;;;;;;19.50;7.38;;;0.90;99.90;;;;;;5025748;28;20507;-60
2022/02/27 03:52:53;;;;;;;11.90;6.68;;;0.90;99.90;;;;;;5042834;28;20698;-60
2022/02/27 03:55:19;;;;;;;17.38;7.15;;;0.90;99.90;;;;;;5027277;28;20060;-60
2022/02/27 03:57:46;;;;;;;22.92;8.45;;;0.90;99.90;;;;;;5040160;28;20142;-60
2022/02/27 04:00:15;;;;;;;16.42;7.63;;;0.90;99.90;;;;;;5040519;28;20040;-60
2022/02/27 04:02:45;;;;;;;16.27;6.90;;;0.90;99.90;;;;;;5043062;28;20093;-60
2022/02/27 04:05:15;;;;;;;16.95;6.78;;;0.90;99.90;;;;;;5043781;28;20048;-60
2022/02/27 04:07:41;;;;;;;15.57;7.72;;;0.90;99.90;;;;;;5042484;28;20432;-60
2022/02/27 04:10:08;;;;;;;18.65;6.72;;;0.90;99.90;;;;;;5042066;28;20072;-60
2022/02/27 04:12:35;;;;;;;18.77;7.97;;;0.80;99.90;;;;;;5007745;28;20072;-60
2022/02/27 04:15:01;;;;;;;14.63;6.85;;;0.80;99.90;;;;;;5042471;28;20053;-60
2022/02/27 04:17:29;;;;;;;13.85;6.78;;;0.90;99.90;;;;;;5042528;28;20386;-60
2022/02/27 04:19:55;;;;;;;21.75;7.38;;;0.80;99.90;;;;;;5043293;28;20053;-60
2022/02/27 04:22:21;;;;;;;16.00;7.53;;;0.80;99.90;;;;;;5042808;28;20095;-59
2022/02/27 04:24:47;;;;;;;21.50;9.27;;;0.80;99.90;;;;;;5026227;28;20106;-59
2022/02/27 04:27:13;;;;;;;17.13;7.35;;;0.80;99.90;;;;;;5058941;28;20089;-59
2022/02/27 04:29:41;;;;;;;14.77;7.03;;;0.80;99.90;;;;;;5043541;28;20669;-59
2022/02/27 04:32:10;;;;;;;21.38;7.43;;;0.80;99.90;;;;;;5042329;28;20045;-59
2022/02/27 04:34:36;;;;;;;15.40;7.72;;;0.80;99.90;;;;;;5042252;28;20056;-59
2022/02/27 04:37:03;;;;;;;22.73;8.18;;;0.80;99.90;;;;;;5042218;28;20586;-59
2022/02/27 04:39:29;;;;;;;14.60;6.50;;;0.80;99.90;;;;;;5019316;28;20528;-59
2022/02/27 04:41:56;;;;;;;20.38;7.22;;;0.80;99.90;;;;;;5040801;28;20087;-59
2022/02/27 04:44:22;;;;;;;18.33;7.47;;;0.80;99.90;;;;;;5022643;28;20045;-60
2022/02/27 04:46:48;;;;;;;20.33;7.90;;;0.80;99.90;;;;;;5042635;28;20039;-59
2022/02/27 04:49:14;;;;;;;14.73;7.57;;;0.80;99.90;;;;;;5041084;28;20402;-60
2022/02/27 04:51:40;;;;;;;16.15;6.75;;;0.80;99.90;;;;;;5040992;28;20104;-60
2022/02/27 04:54:07;;;;;;;17.80;7.03;;;0.70;99.90;;;;;;5057629;28;20407;-60
2022/02/27 04:56:33;;;;;;;16.42;7.85;;;0.80;99.90;;;;;;5041781;28;20139;-60
2022/02/27 04:58:59;;;;;;;16.27;7.45;;;0.80;99.90;;;;;;5026418;28;20267;-60
2022/02/27 05:01:25;;;;;;;14.90;7.68;;;0.80;99.90;;;;;;5023916;28;20838;-60
2022/02/27 05:03:51;;;;;;;14.93;8.35;;;0.80;99.90;;;;;;5041379;28;20045;-60
2022/02/27 05:06:17;;;;;;;23.50;6.90;;;0.90;99.90;;;;;;5040205;28;20146;-60
2022/02/27 05:08:43;;;;;;;22.25;8.15;;;0.80;99.90;;;;;;5042286;28;20106;-60
2022/02/27 05:11:09;;;;;;;22.15;9.45;;;0.80;99.90;;;;;;5043140;28;20559;-60
2022/02/27 05:13:35;;;;;;;14.95;7.32;;;0.80;99.90;;;;;;5041492;28;20082;-60
2022/02/27 05:16:01;;;;;;;19.80;7.75;;;0.80;99.90;;;;;;5041425;28;20099;-60
2022/02/27 05:18:27;;;;;;;13.00;6.95;;;0.80;99.90;;;;;;5041125;28;20087;-60
2022/02/27 05:20:53;;;;;;;14.90;7.82;;;0.80;99.90;;;;;;5024408;28;21073;-60
2022/02/27 05:23:20;;;;;;;23.17;8.90;;;0.80;99.90;;;;;;5043458;28;20328;-59
2022/02/27 05:25:46;;;;;;;18.73;7.85;;;0.70;99.90;;;;;;5041710;28;20131;-59
2022/02/27 05:28:12;;;;;;;21.98;7.95;;;0.70;99.90;;;;;;5041154;28;20080;-60
2022/02/27 05:30:38;;;;;;;16.05;7.90;;;0.70;99.90;;;;;;5041295;28;20074;-60
2022/02/27 05:33:04;;;;;;;16.92;7.88;;;0.70;99.90;;;;;;5024595;28;20414;-60
2022/02/27 05:35:30;;;;;;;20.08;8.80;;;0.70;99.90;;;;;;5041554;28;20057;-60
2022/02/27 05:37:56;;;;;;;20.45;7.45;;;0.60;99.90;;;;;;5041215;28;20248;-60
2022/02/27 05:40:22;;;;;;;16.55;7.97;;;0.60;99.90;;;;;;5023977;28;20481;-60
2022/02/27 05:42:49;;;;;;;22.38;9.10;;;0.60;99.90;;;;;;5039065;28;20489;-61
2022/02/27 05:45:15;;;;;;;20.40;9.05;;;0.60;99.90;;;;;;5041902;28;20084;-61
2022/02/27 05:47:41;;;;;;;14.68;7.43;;;0.60;99.90;;;;;;5056274;28;20053;-61
2022/02/27 05:50:07;;;;;;;21.42;8.07;;;0.70;99.90;;;;;;5041284;28;20115;-61
2022/02/27 05:52:34;;;;;;;14.07;7.68;;;0.70;99.90;;;;;;5039193;28;20069;-61
2022/02/27 05:55:00;;;;;;;24.48;10.10;;;0.70;99.90;;;;;;5041901;28;20060;-61
2022/02/27 05:57:26;;;;;;;14.50;7.95;;;0.70;99.90;;;;;;5040206;28;20044;-60
2022/02/27 05:59:52;;;;;;;16.38;8.73;;;0.60;99.90;;;;;;5008288;28;20126;-61
2022/02/27 06:02:18;;;;;;;19.65;7.88;;;0.60;99.90;;;;;;5039055;28;20063;-61
2022/02/27 06:04:44;;;;;;;18.33;9.43;;;0.70;99.90;;;;;;5040501;28;20053;-61
2022/02/27 06:07:11;;;;;;;20.83;9.07;;;0.70;99.90;;;;;;5042083;28;20052;-61
2022/02/27 06:09:37;;;;;;;19.23;8.15;;;0.60;99.90;;;;;;5041964;28;20638;-61
2022/02/27 06:12:03;;;;;;;19.88;8.88;;;0.60;99.90;;;;;;5040680;28;20500;-61
2022/02/27 06:14:29;;;;;;;20.95;7.70;;;0.60;99.90;;;;;;5040538;28;20322;-61
2022/02/27 06:16:55;;;;;;;21.23;9.20;;;0.60;99.90;;;;;;5022224;28;20049;-61
2022/02/27 06:19:21;;;;;;;18.83;8.88;;;0.60;99.90;;;;;;5042829;28;20041;-61
2022/02/27 06:21:47;;;;;;;21.13;9.43;;;0.60;99.90;;;;;;5041099;28;20084;-61
2022/02/27 06:24:13;;;;;;;20.35;9.88;;;0.60;99.90;;;;;;5039136;28;20056;-61
2022/02/27 06:26:39;;;;;;;21.17;8.35;;;0.60;99.90;;;;;;5040974;28;20057;-61
2022/02/27 06:29:05;;;;;;;19.80;7.70;;;0.60;99.90;;;;;;5043850;28;20111;-61
2022/02/27 06:31:32;;;;;;;23.08;10.57;;;0.60;99.90;;;;;;5042751;28;20897;-61
2022/02/27 06:33:58;;;;;;;17.92;8.93;;;0.60;99.90;;;;;;5041524;28;20460;-61
2022/02/27 06:36:24;;;;;;;20.75;9.35;;;0.60;99.90;;;;;;5043207;28;20128;-61
2022/02/27 06:38:50;;;;;;;17.67;8.93;;;0.60;99.90;;;;;;5045176;28;20052;-60
2022/02/27 06:41:16;;;;;;;17.20;9.48;;;0.60;99.90;;;;;;5067356;28;20072;-60
2022/02/27 06:43:43;;;;;;;19.30;9.25;;;0.60;99.90;;;;;;5027916;28;20088;-60
2022/02/27 06:46:09;;;;;;;23.15;8.93;;;0.60;99.90;;;;;;5044175;28;20047;-60
2022/02/27 06:48:36;;;;;;;20.02;9.73;;;0.60;99.90;;;;;;5028760;28;20439;-60
2022/02/27 06:51:02;;;;;;;18.50;7.68;;;0.70;99.90;;;;;;5031716;28;20089;-60
2022/02/27 06:53:28;;;;;;;18.73;8.88;;;0.70;99.90;;;;;;5045906;28;20375;-60
2022/02/27 06:55:54;;;;;;;21.38;9.93;;;0.70;99.90;;;;;;5042535;28;20060;-60
2022/02/27 06:58:20;;;;;;;13.85;8.23;;;0.70;99.90;;;;;;5061808;28;20560;-60
2022/02/27 07:00:47;;;;;;;18.30;9.02;;;0.70;99.90;;;;;;5025922;28;20401;-60
2022/02/27 07:03:13;;;;;;;18.88;9.70;;;0.80;99.90;;;;;;5042643;28;20508;-60
2022/02/27 07:05:39;;;;;;;16.88;9.63;;;0.80;99.90;;;;;;5036676;28;20472;-60
2022/02/27 07:08:06;;;;;;;22.50;9.05;;;0.80;99.90;;;;;;5044223;28;20037;-60
2022/02/27 07:10:33;;;;;;;23.77;10.00;;;0.80;99.90;;;;;;5038293;28;20504;-60
2022/02/27 07:12:59;;;;;;;18.85;9.55;;;0.90;99.90;;;;;;5020072;28;20762;-61
2022/02/27 07:15:25;;;;;;;19.73;9.93;;;0.90;99.90;;;;;;5043787;28;20053;-60
2022/02/27 07:17:51;;;;;;;18.75;9.13;;;1.00;99.90;;;;;;5028274;28;20104;-60
2022/02/27 07:20:17;;;;;;;21.63;10.15;;;1.00;99.90;;;;;;5043705;28;20049;-60
2022/02/27 07:22:43;;;;;;;14.88;8.65;;;1.10;99.90;;;;;;5026957;28;20059;-60
2022/02/27 07:25:10;;;;;;;19.83;9.57;;;1.20;99.90;;;;;;5045726;28;20048;-60
2022/02/27 07:27:36;;;;;;;15.15;8.85;;;1.30;99.90;;;;;;5046425;28;20044;-60
2022/02/27 07:30:04;;;;;;;15.32;9.23;;;1.40;99.90;;;;;;5044635;28;20458;-59
2022/02/27 07:32:31;;;;;;;13.63;7.93;;;1.60;99.90;;;;;;5023316;28;20077;-60
2022/02/27 07:34:58;;;;;;;15.88;8.18;;;1.70;99.90;;;;;;5042591;28;20126;-62
2022/02/27 07:37:24;;;;;;;15.60;8.05;;;1.80;99.90;;;;;;5041516;28;20053;-60
2022/02/27 07:39:51;;;;;;;17.80;8.02;;;1.90;99.90;;;;;;5038596;28;20412;-59
2022/02/27 07:42:17;;;;;;;18.42;8.00;;;2.00;99.90;;;;;;5054516;28;20512;-60
2022/02/27 07:44:43;;;;;;;14.15;7.68;;;2.30;99.90;;;;;;5041518;28;20053;-60
2022/02/27 07:47:09;;;;;;;14.40;9.27;;;2.70;99.90;;;;;;5042715;28;20059;-60
2022/02/27 07:49:35;;;;;;;16.35;7.18;;;3.10;99.90;;;;;;4998862;28;20041;-59
2022/02/27 07:52:02;;;;;;;19.30;7.28;;;3.60;99.90;;;;;;5043157;28;20571;-59
2022/02/27 07:54:28;;;;;;;19.58;7.28;;;4.00;99.90;;;;;;5043318;28;20064;-60
2022/02/27 07:56:55;;;;;;;15.57;7.45;;;4.30;99.90;;;;;;5043070;28;20503;-59
2022/02/27 07:59:21;;;;;;;13.90;7.15;;;4.60;99.90;;;;;;5058666;28;20045;-59
2022/02/27 08:01:47;;;;;;;14.98;7.03;;;5.00;99.90;;;;;;5040404;28;20075;-59
2022/02/27 08:04:14;;;;;;;13.70;7.35;;;5.30;99.90;;;;;;5039945;28;20044;-59
2022/02/27 08:06:40;;;;;;;11.50;6.57;;;5.50;99.90;;;;;;5018447;28;20130;-59
2022/02/27 08:09:06;;;;;;;15.25;6.50;;;5.70;99.90;;;;;;5054081;28;20046;-59
2022/02/27 08:11:33;;;;;;;12.40;5.90;;;6.00;99.90;;;;;;5032181;28;20091;-59
2022/02/27 08:13:59;;;;;;;13.95;6.47;;;6.20;99.90;;;;;;5020074;28;20103;-59
2022/02/27 08:16:26;;;;;;;10.45;5.80;;;6.60;99.90;;;;;;5036307;28;20520;-60
2022/02/27 08:18:52;;;;;;;16.63;7.88;;;6.80;99.90;;;;;;5036283;28;20041;-62
2022/02/27 08:21:18;;;;;;;12.65;5.90;;;7.00;99.90;;;;;;5037154;28;20041;-59
2022/02/27 08:23:44;;;;;;;11.50;5.68;;;7.40;99.90;;;;;;5036896;28;20514;-60
2022/02/27 08:26:10;;;;;;;15.23;7.20;;;7.50;99.90;;;;;;5035874;28;20506;-62
2022/02/27 08:28:36;;;;;;;11.65;5.95;;;7.50;99.90;;;;;;5032819;28;20470;-60
2022/02/27 08:31:02;;;;;;;14.23;6.00;;;7.70;99.90;;;;;;5034511;28;20124;-60
2022/02/27 08:33:29;;;;;;;11.55;6.00;;;7.90;99.90;;;;;;5039484;28;20135;-60
2022/02/27 08:35:55;;;;;;;16.48;7.13;;;8.10;99.90;;;;;;5038875;28;20072;-60
2022/02/27 08:38:22;;;;;;;11.98;6.78;;;8.40;99.90;;;;;;5042641;28;20132;-59
2022/02/27 08:40:51;;;;;;;14.00;5.82;;;8.60;99.90;;;;;;5043144;28;20116;-60
2022/02/27 08:43:17;;;;;;;15.43;6.10;;;8.70;99.90;;;;;;5040724;28;20041;-60
2022/02/27 08:45:43;;;;;;;13.45;6.80;;;9.00;99.90;;;;;;5038909;28;20049;-59
2022/02/27 08:48:10;;;;;;;10.77;5.30;;;9.30;99.90;;;;;;5051794;28;20064;-58
2022/02/27 08:50:36;;;;;;;16.58;5.80;;;9.40;99.90;;;;;;5018518;28;20053;-59
2022/02/27 08:53:02;;;;;;;11.75;5.70;;;9.60;99.90;;;;;;5034853;28;20060;-59
2022/02/27 08:55:29;;;;;;;11.50;5.05;;;9.30;99.90;;;;;;5030908;28;20242;-59
2022/02/27 08:57:56;;;;;;;10.50;4.60;;;9.80;99.90;;;;;;5036837;28;20722;-59
2022/02/27 09:00:22;;;;;;;10.05;5.15;;;10.10;99.90;;;;;;5035278;28;20053;-59
2022/02/27 09:02:49;;;;;;;14.15;5.13;;;9.80;99.90;;;;;;5038518;28;20094;-59
2022/02/27 09:05:15;;;;;;;12.25;5.47;;;9.70;99.90;;;;;;5042999;28;20463;-59
2022/02/27 09:07:41;;;;;;;15.57;5.03;;;9.90;99.90;;;;;;5037546;28;20127;-59
2022/02/27 09:10:12;;;;;;;12.95;5.05;;;10.00;99.90;;;;;;5042853;28;20519;-59
2022/02/27 09:12:43;;;;;;;12.18;4.47;;;10.30;99.90;;;;;;5022917;28;20288;-59
2022/02/27 09:15:11;;;;;;;10.27;5.40;;;10.50;99.90;;;;;;5040331;28;20080;-60
2022/02/27 09:17:38;;;;;;;10.20;4.20;;;10.70;99.90;;;;;;5037524;28;20062;-59
2022/02/27 09:20:06;;;;;;;12.80;5.10;;;10.70;99.90;;;;;;5024968;28;20049;-60
2022/02/27 09:22:33;;;;;;;10.40;4.63;;;11.00;91.60;;;;;;5038897;28;20053;-60
2022/02/27 09:25:00;;;;;;;9.90;4.45;;;11.20;83.30;;;;;;5041083;28;20048;-60
2022/02/27 09:27:26;;;;;;;9.73;4.30;;;11.40;73.90;;;;;;5040717;28;20037;-60
2022/02/27 09:29:53;;;;;;;10.45;4.40;;;11.60;70.50;;;;;;5023055;28;20056;-59
2022/02/27 09:32:20;;;;;;;13.40;4.75;;;11.90;68.80;;;;;;5058064;28;20057;-60
2022/02/27 09:34:47;;;;;;;11.60;4.30;;;11.90;66.00;;;;;;5040656;28;20049;-60
2022/02/27 09:37:13;;;;;;;12.20;4.72;;;11.80;64.40;;;;;;5041525;28;20194;-59
2022/02/27 09:39:39;;;;;;;8.15;4.00;;;11.80;63.10;;;;;;5039206;28;20073;-60
2022/02/27 09:42:06;;;;;;;10.15;4.90;;;11.70;61.90;;;;;;4992145;28;20057;-60
2022/02/27 09:44:39;;;;;;;9.43;4.13;;;11.50;60.80;;;;;;5039833;28;20049;-61
2022/02/27 09:47:10;;;;;;;10.63;5.05;;;11.50;61.20;;;;;;5041612;28;20068;-60
2022/02/27 09:49:37;;;;;;;13.07;5.07;;;11.30;62.10;;;;;;5024668;28;20500;-60
2022/02/27 09:52:03;;;;;;;10.07;5.60;;;11.50;62.90;;;;;;5023271;28;20750;-61
2022/02/27 09:54:30;;;;;;;12.27;4.90;;;12.00;62.10;;;;;;5040889;28;20048;-60
2022/02/27 09:56:56;;;;;;;10.05;3.90;;;11.90;60.00;;;;;;5041641;28;20040;-60
2022/02/27 09:59:22;;;;;;;9.57;3.92;;;12.30;60.00;;;;;;5022332;28;20434;-60
2022/02/27 10:02:05;;;;;;;11.52;4.13;;;12.30;58.80;;;;;;5039266;28;20077;-60
2022/02/27 10:04:33;;;;;;;12.30;4.80;;;12.40;59.30;;;;;;5034907;28;20045;-58
2022/02/27 10:07:00;;;;;;;8.65;4.10;;;12.60;59.10;;;;;;5039289;28;20051;-60
2022/02/27 10:09:26;;;;;;;9.90;4.80;;;12.30;58.50;;;;;;5039334;28;20045;-58
2022/02/27 10:11:52;;;;;;;8.10;4.07;;;12.30;56.60;;;;;;5039845;28;20124;-58
2022/02/27 10:14:26;;;;;;;10.75;4.18;;;12.30;56.40;;;;;;5041378;28;20101;-58
2022/02/27 10:17:02;;;;;;;9.50;4.72;;;12.50;56.50;;;;;;5011672;28;20074;-58
2022/02/27 10:19:28;;;;;;;12.40;4.22;;;12.70;56.00;;;;;;5047123;28;20045;-58
2022/02/27 10:21:54;;;;;;;12.77;5.03;;;12.80;55.90;;;;;;5040586;28;20048;-59
2022/02/27 10:24:20;;;;;;;9.82;4.65;;;12.60;56.00;;;;;;5037567;28;20049;-58
2022/02/27 10:26:49;;;;;;;8.63;4.57;;;12.80;56.00;;;;;;5023239;28;20092;-60
2022/02/27 10:29:18;;;;;;;14.02;4.88;;;13.20;56.20;;;;;;5022687;28;20131;-58
2022/02/27 10:31:49;;;;;;;10.45;4.75;;;13.50;54.70;;;;;;5023762;28;20099;-59
2022/02/27 10:34:30;;;;;;;9.93;4.67;;;13.80;55.00;;;;;;5042388;28;20045;-59
2022/02/27 10:37:01;;;;;;;;;;;14.30;55.30;;;;;;5040061;28;20655;-58
2022/02/27 10:39:42;;;;;;;9.32;4.65;;;14.30;53.20;;;;;;5040249;28;19920;-58
2022/02/27 10:42:21;;;;;;;8.02;4.63;;;14.30;53.20;;;;;;5042094;28;20092;-59
2022/02/27 10:44:52;;;;;;;8.45;4.25;;;14.70;54.30;;;;;;5040626;28;20060;-58
2022/02/27 10:47:19;;;;;;;8.15;4.28;;;14.90;52.70;;;;;;5037664;28;20055;-58
2022/02/27 10:49:47;;;;;;;17.80;10.82;;;14.40;51.70;;;;;;5042057;28;20124;-58
2022/02/27 10:52:19;;;;;;;9.82;4.20;;;14.40;52.10;;;;;;5040184;28;20049;-58
2022/02/27 10:54:51;;;;;;;8.07;4.80;;;14.70;51.80;;;;;;5037599;28;20048;-58
2022/02/27 10:57:45;;;;;;;7.57;4.22;;;14.70;50.60;;;;;;5038793;28;20128;-58
2022/02/27 11:00:20;;;;;;;9.43;5.68;;;14.90;50.00;;;;;;5038772;28;20276;-58
2022/02/27 11:02:54;;;;;;;9.35;4.55;;;15.00;50.50;;;;;;5036778;28;20083;-58
2022/02/27 11:05:22;;;;;;;8.88;4.10;;;14.70;51.20;;;;;;5034998;28;20545;-58
2022/02/27 11:07:55;;;;;;;8.10;4.22;;;14.70;50.00;;;;;;5038393;28;20048;-58
2022/02/27 11:10:22;;;;;;;10.70;4.70;;;14.70;50.20;;;;;;5037282;28;20055;-58
2022/02/27 11:12:49;;;;;;;10.40;4.22;;;15.00;51.30;;;;;;5039454;28;20408;-58
2022/02/27 11:15:17;;;;;;;7.85;4.45;;;15.10;50.60;;;;;;5041365;28;20048;-58
2022/02/27 11:17:44;;;;;;;5.53;3.65;;;15.10;50.10;;;;;;5040639;28;20048;-58
2022/02/27 11:20:12;;;;;;;8.82;4.40;;;15.10;48.90;;;;;;5039947;28;20116;-58
2022/02/27 11:22:39;;;;;;;12.40;4.53;;;15.10;49.90;;;;;;5042850;28;20076;-58
2022/02/27 11:25:08;;;;;;;8.27;4.00;;;15.30;49.30;;;;;;5043944;28;20579;-58
2022/02/27 11:28:05;;;;;;;10.15;3.65;;;15.20;48.60;;;;;;5025393;28;20664;-58
2022/02/27 11:30:33;;;;;;;7.78;4.00;;;14.90;46.70;;;;;;5043947;28;20045;-59
2022/02/27 11:33:05;;;;;;;9.18;4.10;;;14.80;49.00;;;;;;5059390;28;20206;-58
2022/02/27 11:35:32;;;;;;;;;;;15.40;48.60;;;;;;5009149;28;20045;-58
2022/02/27 11:37:58;;;;;;;7.63;3.80;;;15.40;49.10;;;;;;5042727;28;20069;-58
2022/02/27 11:40:31;;;;;;;7.25;3.70;;;15.80;48.30;;;;;;5024556;28;20063;-59
2022/02/27 11:43:02;;;;;;;9.23;3.92;;;16.00;47.80;;;;;;5025360;28;20049;-58
2022/02/27 11:45:34;;;;;;;8.13;4.20;;;15.90;46.90;;;;;;5044462;28;20374;-59
2022/02/27 11:48:02;;;;;;;9.90;4.07;;;15.70;47.00;;;;;;5048746;28;20436;-58
2022/02/27 11:50:35;;;;;;;9.57;3.70;;;15.90;47.70;;;;;;5043852;28;20807;-59
2022/02/27 11:53:25;;;;;;;51.20;42.08;;;15.70;46.50;;;;;;5042851;28;20147;-58
2022/02/27 11:55:54;;;;;;;9.13;4.18;;;16.20;45.10;;;;;;5024201;28;20045;-62
2022/02/27 11:58:24;;;;;;;7.63;3.63;;;15.70;46.20;;;;;;5044730;28;20037;-58
2022/02/27 12:00:51;;;;;;;7.57;3.83;;;15.30;46.20;;;;;;5037559;28;20135;-58
2022/02/27 12:03:35;;;;;;;9.52;3.70;;;15.50;46.50;;;;;;5040089;28;20065;-58
2022/02/27 12:06:05;;;;;;;9.52;3.80;;;15.20;45.40;;;;;;5039790;28;20141;-58
2022/02/27 12:08:45;;;;;;;8.75;4.22;;;15.30;46.70;;;;;;5040797;28;20033;-58
2022/02/27 12:11:27;;;;;;;6.93;3.45;;;15.80;46.70;;;;;;5042053;28;20053;-58
2022/02/27 12:13:55;;;;;;;8.07;3.90;;;15.70;45.80;;;;;;5041957;28;20079;-58
2022/02/27 12:16:45;;;;;;;7.85;3.90;;;15.70;46.20;;;;;;5038465;28;20130;-58
2022/02/27 12:19:20;;;;;;;6.10;3.47;;;15.30;44.10;;;;;;5041145;28;20276;-58
2022/02/27 12:21:49;;;;;;;6.53;3.33;;;15.00;44.50;;;;;;5053482;28;20044;-58
2022/02/27 12:24:23;;;;;;;6.93;3.15;;;15.00;45.40;;;;;;5037578;28;20428;-58
2022/02/27 12:26:52;;;;;;;7.85;3.45;;;15.70;45.70;;;;;;5037371;28;20557;-58
2022/02/27 12:29:31;;;;;;;6.72;3.20;;;15.60;44.10;;;;;;5038580;28;20043;-58
2022/02/27 12:32:02;;;;;;;5.18;3.10;;;15.70;45.10;;;;;;5038608;28;20045;-59
2022/02/27 12:34:29;;;;;;;8.20;3.70;;;15.60;44.50;;;;;;5038615;28;20410;-59
2022/02/27 12:36:57;;;;;;;7.90;3.90;;;15.80;43.90;;;;;;5037173;28;20488;-58
2022/02/27 12:39:24;;;;;;;6.50;3.60;;;15.50;43.60;;;;;;5039574;28;20057;-58
2022/02/27 12:41:54;;;;;;;6.50;3.13;;;16.30;45.80;;;;;;5053660;28;20051;-58
2022/02/27 12:44:24;;;;;;;5.32;3.08;;;15.90;42.80;;;;;;5037218;28;20504;-58
2022/02/27 12:46:52;;;;;;;6.43;3.40;;;15.80;43.40;;;;;;5037716;28;20055;-58